createdAt,value
2018-05-24T00:04:34.236Z,6.10
2018-05-24T00:09:36.803Z,5.27
2018-05-24T00:14:39.364Z,5.10
2018-05-24T00:19:41.966Z,5.17
2018-05-24T00:24:44.526Z,6.10
2018-05-24T00:29:47.082Z,5.07
2018-05-24T00:34:49.609Z,6.00
2018-05-24T00:39:52.189Z,6.73
2018-05-24T00:44:54.787Z,5.37
2018-05-24T00:49:58.150Z,4.80
2018-05-24T00:55:12.704Z,5.40
2018-05-24T01:00:15.267Z,6.13
2018-05-24T01:05:18.591Z,4.60
2018-05-24T01:10:21.201Z,5.60
2018-05-24T01:15:23.851Z,5.43
2018-05-24T01:20:26.410Z,4.67
2018-05-24T01:25:29.006Z,4.73
2018-05-24T01:30:31.554Z,4.00
2018-05-24T01:35:34.131Z,3.20
2018-05-24T01:40:36.778Z,3.60
2018-05-24T01:45:39.320Z,2.77
2018-05-24T01:50:42.265Z,3.03
2018-05-24T01:55:44.849Z,3.40
2018-05-24T02:00:47.644Z,3.20
2018-05-24T02:05:50.218Z,2.03
2018-05-24T02:10:52.773Z,3.13
2018-05-24T02:15:55.386Z,3.00
2018-05-24T02:20:57.977Z,2.67
2018-05-24T02:26:01.135Z,3.17
2018-05-24T02:31:03.704Z,2.47
2018-05-24T02:36:06.531Z,3.10
2018-05-24T02:41:08.831Z,3.90
2018-05-24T02:46:11.430Z,3.60
2018-05-24T02:51:14.041Z,3.43
2018-05-24T02:56:16.766Z,3.50
2018-05-24T03:01:19.245Z,3.40
2018-05-24T03:06:21.836Z,3.60
2018-05-24T03:11:24.388Z,3.87
2018-05-24T03:16:27.016Z,3.27
2018-05-24T03:21:31.132Z,4.00
2018-05-24T03:26:34.525Z,4.03
2018-05-24T03:31:37.151Z,3.80
2018-05-24T03:36:40.518Z,4.00
2018-05-24T03:41:43.091Z,3.50
2018-05-24T03:46:45.644Z,3.57
2018-05-24T03:51:48.210Z,4.30
2018-05-24T03:56:50.817Z,4.13
2018-05-24T04:02:05.284Z,6.77
2018-05-24T04:07:07.919Z,4.07
2018-05-24T04:12:10.481Z,3.80
2018-05-24T04:17:13.069Z,3.40
2018-05-24T04:22:15.621Z,3.17
2018-05-24T04:27:18.204Z,3.40
2018-05-24T04:32:20.762Z,3.53
2018-05-24T04:37:23.400Z,3.93
2018-05-24T04:42:26.015Z,4.10
2018-05-24T04:47:28.594Z,4.13
2018-05-24T04:52:31.166Z,3.80
2018-05-24T04:57:33.807Z,4.23
2018-05-24T05:02:36.363Z,4.17
2018-05-24T05:07:39.508Z,3.50
2018-05-24T05:12:42.270Z,5.27
2018-05-24T05:17:45.377Z,6.00
2018-05-24T05:22:48.038Z,5.70
2018-05-24T05:27:50.745Z,4.50
2018-05-24T05:32:53.564Z,4.43
2018-05-24T05:37:56.420Z,5.17
2018-05-24T05:43:00.126Z,5.00
2018-05-24T05:48:03.070Z,6.13
2018-05-24T05:53:05.722Z,4.40
2018-05-24T05:58:08.530Z,5.20
2018-05-24T06:03:12.547Z,5.33
2018-05-24T06:08:15.258Z,5.50
2018-05-24T06:13:18.993Z,5.33
2018-05-24T06:18:22.535Z,5.83
2018-05-24T06:23:25.253Z,4.67
2018-05-24T06:28:28.274Z,5.33
2018-05-24T06:33:30.775Z,6.50
2018-05-24T06:38:33.800Z,5.77
2018-05-24T06:43:36.742Z,6.20
2018-05-24T06:48:39.577Z,5.13
2018-05-24T06:53:42.618Z,5.90
2018-05-24T06:58:45.563Z,5.00
2018-05-24T07:03:48.239Z,4.40
2018-05-24T07:08:50.785Z,6.07
2018-05-24T07:13:53.401Z,5.67
2018-05-24T07:18:56.012Z,4.70
2018-05-24T07:23:58.614Z,5.03
2018-05-24T07:29:01.235Z,5.83
2018-05-24T07:34:04.195Z,6.03
2018-05-24T07:39:06.769Z,5.53
2018-05-24T07:44:10.442Z,5.90
2018-05-24T07:49:13.043Z,6.47
2018-05-24T07:54:15.703Z,6.00
2018-05-24T07:59:18.330Z,5.47
2018-05-24T08:04:21.096Z,5.93
2018-05-24T08:09:23.755Z,6.23
2018-05-24T08:14:26.396Z,6.20
2018-05-24T08:19:28.951Z,5.63
2018-05-24T08:24:31.522Z,5.57
2018-05-24T08:29:34.221Z,7.70
2018-05-24T08:34:36.810Z,6.33
2018-05-24T08:39:39.349Z,5.70
2018-05-24T08:44:41.891Z,5.90
2018-05-24T08:49:44.425Z,7.40
2018-05-24T08:54:46.958Z,6.20
2018-05-24T08:59:49.496Z,6.13
2018-05-24T09:04:52.037Z,6.50
2018-05-24T09:09:54.729Z,6.70
2018-05-24T09:14:57.276Z,6.73
2018-05-24T09:19:59.890Z,7.00
2018-05-24T09:25:02.561Z,7.83
2018-05-24T09:30:05.201Z,7.37
2018-05-24T09:35:07.817Z,7.60
2018-05-24T09:40:10.659Z,8.40
2018-05-24T09:45:13.390Z,7.23
2018-05-24T09:50:16.062Z,7.80
2018-05-24T09:55:18.787Z,7.53
2018-05-24T10:00:22.939Z,8.57
2018-05-24T10:05:26.002Z,9.60
2018-05-24T10:10:28.908Z,8.50
2018-05-24T10:15:31.465Z,9.83
2018-05-24T10:20:34.154Z,7.70
2018-05-24T10:25:36.739Z,8.30
2018-05-24T10:30:39.362Z,9.33
2018-05-24T10:35:41.933Z,8.70
2018-05-24T10:40:44.538Z,10.90
2018-05-24T10:45:48.074Z,9.00
2018-05-24T10:50:50.735Z,9.63
2018-05-24T10:55:53.299Z,8.53
2018-05-24T11:00:55.836Z,9.07
2018-05-24T11:05:58.420Z,8.20
2018-05-24T11:11:01.108Z,8.57
2018-05-24T11:16:03.697Z,8.03
2018-05-24T11:21:06.364Z,8.00
2018-05-24T11:26:09.047Z,7.07
2018-05-24T11:31:11.614Z,7.10
2018-05-24T11:36:14.248Z,6.20
2018-05-24T11:41:16.835Z,5.97
2018-05-24T11:46:19.417Z,6.77
2018-05-24T11:51:22.005Z,6.90
2018-05-24T11:56:24.682Z,6.87
2018-05-24T12:01:27.268Z,6.50
2018-05-24T12:06:29.885Z,7.17
2018-05-24T12:11:32.525Z,6.73
2018-05-24T12:16:35.232Z,9.07
2018-05-24T12:21:37.867Z,7.87
2018-05-24T12:26:40.456Z,7.57
2018-05-24T12:31:43.090Z,7.43
2018-05-24T12:36:45.770Z,7.60
2018-05-24T12:41:48.446Z,7.37
2018-05-24T12:46:51.663Z,8.60
2018-05-24T12:51:54.242Z,7.80
2018-05-24T12:56:56.952Z,8.80
2018-05-24T13:01:59.496Z,7.47
2018-05-24T13:07:02.066Z,8.67
2018-05-24T13:12:04.615Z,6.97
2018-05-24T13:17:07.231Z,7.83
2018-05-24T13:22:09.730Z,7.63
2018-05-24T13:27:13.260Z,8.27
2018-05-24T13:32:15.933Z,7.80
2018-05-24T13:37:20.227Z,5.30
2018-05-24T13:42:23.778Z,5.90
2018-05-24T13:47:27.168Z,5.83
2018-05-24T13:52:29.757Z,5.20
2018-05-24T13:57:44.236Z,4.90
2018-05-24T14:02:47.586Z,5.93
2018-05-24T14:07:50.117Z,5.23
2018-05-24T14:12:52.723Z,5.43
2018-05-24T14:17:55.362Z,3.90
2018-05-24T14:22:57.984Z,5.17
2018-05-24T14:28:01.348Z,7.33
2018-05-24T14:33:03.920Z,6.10
2018-05-24T14:38:06.485Z,6.23
2018-05-24T14:43:09.081Z,5.07
2018-05-24T14:48:11.660Z,5.60
2018-05-24T14:53:14.235Z,5.57
2018-05-24T14:58:18.244Z,5.10
2018-05-24T15:03:21.603Z,4.73
2018-05-24T15:08:24.310Z,4.50
2018-05-24T15:13:39.665Z,3.43
2018-05-24T15:18:42.320Z,4.53
2018-05-24T15:23:45.065Z,4.43
2018-05-24T15:28:47.825Z,3.77
2018-05-24T15:33:50.435Z,4.13
2018-05-24T15:38:53.099Z,3.30
2018-05-24T15:43:56.432Z,3.30
2018-05-24T15:48:59.066Z,3.27
2018-05-24T15:54:01.557Z,3.20
2018-05-24T15:59:04.135Z,2.40
2018-05-24T16:04:06.702Z,2.40
2018-05-24T16:09:09.491Z,2.87
2018-05-24T16:14:12.082Z,2.77
2018-05-24T16:19:14.621Z,2.80
2018-05-24T16:24:17.249Z,2.50
2018-05-24T16:29:19.804Z,2.60
2018-05-24T16:34:22.635Z,2.47
2018-05-24T16:39:25.417Z,3.63
2018-05-24T16:44:28.012Z,3.03
2018-05-24T16:49:30.588Z,2.97
2018-05-24T16:54:33.357Z,3.50
2018-05-24T16:59:35.901Z,3.40
2018-05-24T17:04:38.447Z,3.70
2018-05-24T17:09:41.145Z,4.07
2018-05-24T17:14:43.743Z,3.60
2018-05-24T17:19:46.305Z,3.97
2018-05-24T17:24:49.666Z,3.53
2018-05-24T17:29:52.304Z,4.80
2018-05-24T17:34:54.895Z,4.10
2018-05-24T17:39:57.504Z,4.97
2018-05-24T17:45:00.811Z,4.13
2018-05-24T17:50:03.389Z,4.60
2018-05-24T17:55:06.019Z,4.97
2018-05-24T18:00:08.651Z,3.93
2018-05-24T18:05:12.489Z,4.60
2018-05-24T18:10:15.114Z,4.63
2018-05-24T18:15:17.753Z,4.60
2018-05-24T18:20:20.424Z,4.67
2018-05-24T18:25:23.097Z,4.20
2018-05-24T18:30:25.676Z,4.33
2018-05-24T18:35:28.277Z,4.70
2018-05-24T18:40:30.818Z,4.20
2018-05-24T18:45:33.447Z,4.20
2018-05-24T18:50:36.029Z,4.67
2018-05-24T18:55:38.617Z,4.30
2018-05-24T19:00:41.234Z,5.67
2018-05-24T19:05:43.829Z,4.80
2018-05-24T19:10:46.459Z,4.70
2018-05-24T19:15:49.038Z,4.67
2018-05-24T19:20:51.684Z,5.27
2018-05-24T19:25:54.197Z,4.97
2018-05-24T19:30:56.840Z,5.53
2018-05-24T19:35:59.410Z,5.60
2018-05-24T19:41:02.042Z,5.00
2018-05-24T19:46:04.764Z,5.30
2018-05-24T19:51:07.349Z,4.93
2018-05-24T19:56:09.908Z,5.00
2018-05-24T20:01:12.462Z,4.50
2018-05-24T20:06:15.803Z,4.60
2018-05-24T20:11:18.435Z,5.37
2018-05-24T20:16:21.002Z,5.10
2018-05-24T20:21:23.548Z,5.70
2018-05-24T20:26:26.114Z,5.53
2018-05-24T20:31:28.695Z,4.57
2018-05-24T20:36:31.273Z,5.27
2018-05-24T20:41:33.920Z,8.40
2018-05-24T20:46:36.516Z,17.20
2018-05-24T20:51:39.101Z,13.73
2018-05-24T20:56:41.729Z,10.43
2018-05-24T21:01:44.393Z,5.83
2018-05-24T21:06:46.920Z,5.57
2018-05-24T21:11:49.528Z,5.33
2018-05-24T21:16:52.190Z,4.90
2018-05-24T21:21:54.789Z,5.00
2018-05-24T21:26:57.347Z,5.10
2018-05-24T21:31:59.899Z,4.10
2018-05-24T21:37:02.462Z,6.53
2018-05-24T21:42:05.021Z,4.40
2018-05-24T21:47:07.605Z,5.13
2018-05-24T21:52:10.179Z,5.77
2018-05-24T21:57:12.826Z,5.50
2018-05-24T22:02:15.373Z,4.60
2018-05-24T22:07:18.800Z,5.50
2018-05-24T22:12:21.372Z,5.20
2018-05-24T22:17:23.957Z,5.20
2018-05-24T22:22:26.523Z,5.97
2018-05-24T22:27:29.126Z,4.70
2018-05-24T22:32:31.712Z,5.37
2018-05-24T22:37:34.265Z,5.40
2018-05-24T22:42:36.858Z,6.50
2018-05-24T22:47:39.407Z,5.30
2018-05-24T22:52:41.952Z,5.07
2018-05-24T22:57:44.526Z,4.80
2018-05-24T23:02:47.080Z,4.47
2018-05-24T23:07:50.443Z,4.20
2018-05-24T23:12:52.992Z,5.10
2018-05-24T23:17:55.722Z,5.77
2018-05-24T23:22:58.269Z,5.40
2018-05-24T23:28:00.834Z,5.40
2018-05-24T23:33:03.469Z,5.37
2018-05-24T23:38:06.069Z,5.10
2018-05-24T23:43:08.618Z,4.93
2018-05-24T23:48:11.133Z,4.90
2018-05-24T23:53:13.672Z,5.20
2018-05-24T23:58:16.218Z,4.87
